Time;durP1;ratioP1;P1;durP2;ratioP2;P2;SDS_P1;SDS_P2;PMS_P1;PMS_P2;Temp;Humidity;BMP_temperature;BMP_pressure;BME280_temperature;BME280_humidity;BME280_pressure;Samples;Min_cycle;Max_cycle;Signal;HPM_P1;HPM_P2
2022/03/16 05:01:03;;;;;;;27.85;13.38;;;4.50;99.90;;;;;;5603776;23;20237;-68
2022/03/16 05:03:30;;;;;;;22.95;14.13;;;4.50;99.90;;;;;;4913024;29;20211;-68
2022/03/16 05:05:58;;;;;;;22.70;14.38;;;4.50;99.90;;;;;;4919122;29;20773;-68
2022/03/16 05:08:24;;;;;;;32.50;15.00;;;4.40;99.90;;;;;;4924833;29;20206;-69
2022/03/16 05:10:51;;;;;;;24.30;13.90;;;4.40;99.90;;;;;;4918613;29;20289;-67
2022/03/16 05:13:18;;;;;;;26.88;15.18;;;4.40;99.90;;;;;;4930317;29;20210;-68
2022/03/16 05:15:44;;;;;;;24.42;14.35;;;4.40;99.90;;;;;;4915690;29;20577;-69
2022/03/16 05:18:12;;;;;;;23.33;14.90;;;4.40;99.90;;;;;;4921485;29;20625;-68
2022/03/16 05:20:39;;;;;;;24.38;14.65;;;4.30;99.90;;;;;;4919088;29;20230;-68
2022/03/16 05:23:06;;;;;;;28.35;15.60;;;4.30;99.90;;;;;;4907987;29;20211;-68
2022/03/16 05:25:32;;;;;;;23.67;15.05;;;4.30;99.90;;;;;;4918189;29;20227;-68
2022/03/16 05:27:59;;;;;;;30.38;15.45;;;4.30;99.90;;;;;;4918140;29;20266;-67
2022/03/16 05:30:27;;;;;;;24.33;15.00;;;4.20;99.90;;;;;;4913655;29;20214;-68
2022/03/16 05:32:55;;;;;;;27.13;14.50;;;4.20;99.90;;;;;;4914902;29;20314;-68
2022/03/16 05:35:24;;;;;;;28.88;15.38;;;4.20;99.90;;;;;;4908234;29;20262;-67
2022/03/16 05:37:50;;;;;;;26.40;15.30;;;4.20;99.90;;;;;;4908171;29;20265;-68
2022/03/16 05:40:17;;;;;;;34.10;14.63;;;4.20;99.90;;;;;;4918908;29;20207;-68
2022/03/16 05:42:44;;;;;;;34.55;16.83;;;4.20;99.90;;;;;;4921559;29;20297;-68
2022/03/16 05:45:11;;;;;;;33.20;16.00;;;4.20;99.90;;;;;;4925275;29;20229;-68
2022/03/16 05:47:38;;;;;;;25.27;14.18;;;4.20;99.90;;;;;;4925670;29;20218;-68
2022/03/16 05:50:06;;;;;;;32.85;17.55;;;4.20;99.90;;;;;;4923343;29;20269;-68
2022/03/16 05:52:34;;;;;;;24.25;15.73;;;4.20;99.90;;;;;;4920185;29;20285;-69
2022/03/16 05:55:01;;;;;;;21.02;14.02;;;4.30;99.90;;;;;;4928272;29;20629;-68
2022/03/16 05:57:28;;;;;;;28.83;15.50;;;4.30;99.90;;;;;;4918990;29;20216;-70
2022/03/16 05:59:55;;;;;;;32.42;16.20;;;4.30;99.90;;;;;;4923934;29;20678;-68
2022/03/16 06:02:21;;;;;;;26.33;16.55;;;4.40;99.90;;;;;;4928401;29;20239;-67
2022/03/16 06:04:48;;;;;;;28.80;17.08;;;4.40;99.90;;;;;;4926168;29;20284;-68
2022/03/16 06:07:15;;;;;;;29.70;16.60;;;4.50;99.90;;;;;;4923531;29;20214;-68
2022/03/16 06:09:44;;;;;;;29.15;16.95;;;4.50;99.90;;;;;;4915527;29;20628;-68
2022/03/16 06:12:11;;;;;;;28.80;17.48;;;4.50;99.90;;;;;;4923223;29;20603;-68
2022/03/16 06:14:38;;;;;;;25.98;16.48;;;4.60;99.90;;;;;;4910303;29;20265;-67
2022/03/16 06:17:05;;;;;;;27.30;17.25;;;4.60;99.90;;;;;;4918840;29;20228;-68
2022/03/16 06:19:32;;;;;;;28.85;17.50;;;4.60;99.90;;;;;;4917540;29;20211;-67
2022/03/16 06:21:58;;;;;;;26.42;15.85;;;4.60;99.90;;;;;;4919782;29;20348;-68
2022/03/16 06:24:25;;;;;;;25.98;15.35;;;4.70;99.90;;;;;;4915795;29;20262;-67
2022/03/16 06:26:53;;;;;;;27.20;16.73;;;4.70;99.90;;;;;;4926067;29;20210;-68
2022/03/16 06:29:20;;;;;;;24.38;17.05;;;4.70;99.90;;;;;;4921629;29;20252;-67
2022/03/16 06:31:46;;;;;;;27.33;16.23;;;4.80;99.90;;;;;;4911511;29;20604;-69
2022/03/16 06:34:13;;;;;;;28.13;15.88;;;4.80;99.90;;;;;;4924392;29;20207;-68
2022/03/16 06:36:40;;;;;;;31.55;18.05;;;4.80;99.90;;;;;;4916924;29;20207;-68
2022/03/16 06:39:07;;;;;;;32.40;18.50;;;4.90;99.90;;;;;;4923984;29;20297;-68
2022/03/16 06:41:33;;;;;;;27.88;16.38;;;4.90;99.90;;;;;;4916129;29;20226;-67
2022/03/16 06:44:02;;;;;;;35.35;18.38;;;5.00;99.90;;;;;;4922325;29;20203;-69
2022/03/16 06:46:28;;;;;;;34.00;20.98;;;5.10;99.90;;;;;;4923574;29;20202;-68
2022/03/16 06:48:55;;;;;;;30.35;18.52;;;5.10;99.90;;;;;;4924356;29;20785;-68
2022/03/16 06:51:22;;;;;;;28.20;19.73;;;5.20;99.90;;;;;;4913504;29;20286;-67
2022/03/16 06:53:49;;;;;;;36.65;19.70;;;5.20;99.90;;;;;;4924568;29;20206;-68
2022/03/16 06:56:16;;;;;;;33.80;18.48;;;5.30;99.90;;;;;;4918503;29;20671;-69
2022/03/16 06:58:42;;;;;;;29.75;17.70;;;5.40;99.90;;;;;;4910211;29;20210;-69
2022/03/16 07:01:10;;;;;;;29.95;18.73;;;5.50;99.90;;;;;;4906767;29;20243;-70
2022/03/16 07:03:37;;;;;;;26.08;17.00;;;5.60;99.90;;;;;;4910562;29;20210;-68
2022/03/16 07:06:04;;;;;;;27.77;17.48;;;5.80;99.90;;;;;;4917811;29;20246;-68
2022/03/16 07:08:31;;;;;;;29.77;17.92;;;5.90;99.90;;;;;;4920439;29;20213;-68
2022/03/16 07:10:57;;;;;;;29.92;18.20;;;6.00;99.90;;;;;;4916272;29;20242;-68
2022/03/16 07:13:24;;;;;;;34.28;19.70;;;6.20;99.90;;;;;;4916436;29;20214;-68
2022/03/16 07:15:51;;;;;;;35.20;20.23;;;6.30;99.90;;;;;;4923077;29;20219;-68
2022/03/16 07:18:20;;;;;;;29.35;19.10;;;6.40;99.90;;;;;;4909607;29;20308;-68
2022/03/16 07:20:47;;;;;;;25.77;17.50;;;6.50;99.90;;;;;;4913239;29;20312;-68
2022/03/16 07:23:15;;;;;;;27.67;18.08;;;6.50;99.90;;;;;;4926724;29;20214;-68
2022/03/16 07:25:43;;;;;;;26.23;17.80;;;6.60;99.90;;;;;;4925450;29;20257;-68
2022/03/16 07:28:10;;;;;;;33.92;18.60;;;6.70;99.90;;;;;;4925726;29;20255;-68
2022/03/16 07:30:38;;;;;;;24.60;16.73;;;6.70;99.90;;;;;;4921856;29;20297;-69
2022/03/16 07:33:05;;;;;;;24.40;16.10;;;6.80;99.90;;;;;;4917503;29;20266;-68
2022/03/16 07:35:34;;;;;;;25.77;14.77;;;6.90;99.90;;;;;;4927771;29;20731;-68
2022/03/16 07:38:02;;;;;;;21.20;13.32;;;7.00;99.90;;;;;;4919495;29;20249;-67
2022/03/16 07:40:30;;;;;;;18.58;13.52;;;7.00;99.90;;;;;;4916364;29;20219;-66
2022/03/16 07:42:57;;;;;;;19.08;12.20;;;7.10;99.90;;;;;;4915375;29;20751;-66
2022/03/16 07:45:24;;;;;;;16.33;11.50;;;7.20;99.90;;;;;;4921163;29;20278;-68
2022/03/16 07:47:52;;;;;;;15.70;10.98;;;7.20;99.90;;;;;;4904885;29;20207;-66
2022/03/16 07:50:20;;;;;;;19.30;11.63;;;7.30;99.90;;;;;;4917247;29;20628;-66
2022/03/16 07:52:48;;;;;;;18.20;11.20;;;7.40;99.90;;;;;;4920699;29;20202;-67
2022/03/16 07:55:14;;;;;;;20.63;11.90;;;7.50;99.90;;;;;;4919363;29;20218;-66
2022/03/16 07:57:41;;;;;;;19.45;11.88;;;7.50;99.90;;;;;;4921070;29;20233;-66
2022/03/16 08:00:11;;;;;;;14.48;10.85;;;7.50;99.90;;;;;;4918984;29;20203;-66
2022/03/16 08:02:37;;;;;;;13.50;9.95;;;7.50;99.90;;;;;;4933571;29;20214;-65
2022/03/16 08:05:05;;;;;;;14.13;10.95;;;7.60;99.90;;;;;;4924656;29;20242;-67
2022/03/16 08:07:31;;;;;;;16.98;10.75;;;7.60;99.90;;;;;;4922995;29;20289;-67
2022/03/16 08:10:00;;;;;;;15.77;11.80;;;7.70;99.90;;;;;;4909882;29;20656;-69
2022/03/16 08:12:27;;;;;;;13.13;10.57;;;7.70;99.90;;;;;;4940455;29;20271;-69
2022/03/16 08:14:54;;;;;;;14.63;11.75;;;7.70;99.90;;;;;;4939679;29;20198;-68
2022/03/16 08:17:22;;;;;;;14.38;10.63;;;7.80;99.90;;;;;;4930753;29;20672;-68
2022/03/16 08:19:50;;;;;;;12.88;10.45;;;7.90;99.90;;;;;;4930651;29;20202;-68
2022/03/16 08:22:26;;;;;;;19.50;12.82;;;8.00;99.90;;;;;;4907385;29;20502;-68
2022/03/16 08:24:53;;;;;;;21.13;13.10;;;8.10;99.90;;;;;;4921155;29;20226;-68
2022/03/16 08:27:22;;;;;;;14.90;10.55;;;8.20;99.90;;;;;;4915081;29;20214;-68
2022/03/16 08:29:49;;;;;;;15.48;11.52;;;8.20;99.90;;;;;;4921071;29;20232;-68
2022/03/16 08:32:16;;;;;;;18.50;10.93;;;8.20;99.90;;;;;;4914820;29;20231;-67
2022/03/16 08:34:43;;;;;;;15.48;11.00;;;8.20;99.90;;;;;;4933877;29;20216;-69
2022/03/16 08:37:10;;;;;;;18.02;11.38;;;8.30;99.90;;;;;;4934315;29;20597;-68
2022/03/16 08:39:37;;;;;;;17.20;11.65;;;8.40;99.90;;;;;;4920151;29;20207;-67
2022/03/16 08:42:04;;;;;;;14.93;11.35;;;8.50;99.90;;;;;;4915273;29;20568;-68
2022/03/16 08:44:32;;;;;;;13.63;11.45;;;8.60;99.90;;;;;;4914667;29;20206;-68
2022/03/16 08:46:59;;;;;;;11.82;10.60;;;8.60;99.90;;;;;;4915627;29;20210;-69
2022/03/16 08:49:26;;;;;;;16.90;11.98;;;8.70;99.90;;;;;;4914654;29;20214;-68
2022/03/16 08:51:52;;;;;;;12.70;9.68;;;8.80;99.90;;;;;;4914459;29;20227;-68
2022/03/16 08:54:20;;;;;;;14.68;11.05;;;8.90;99.90;;;;;;4914704;29;20233;-68
2022/03/16 08:56:46;;;;;;;14.70;10.73;;;9.00;99.90;;;;;;4915042;29;20210;-69
2022/03/16 08:59:13;;;;;;;15.60;10.63;;;9.10;99.90;;;;;;4914440;29;20678;-68
2022/03/16 09:01:41;;;;;;;13.43;10.15;;;9.10;99.90;;;;;;4914122;29;20318;-68
2022/03/16 09:04:09;;;;;;;12.40;10.15;;;9.20;99.90;;;;;;4914959;29;20213;-69
2022/03/16 09:06:36;;;;;;;13.30;10.40;;;9.30;99.90;;;;;;4912546;29;20226;-69
2022/03/16 09:09:03;;;;;;;12.60;10.15;;;9.30;99.90;;;;;;4914350;29;20214;-69
2022/03/16 09:11:29;;;;;;;13.23;9.98;;;9.40;99.90;;;;;;4914155;29;20235;-68
2022/03/16 09:13:57;;;;;;;16.33;9.73;;;9.40;99.90;;;;;;4914487;29;20214;-68
2022/03/16 09:16:24;;;;;;;18.30;11.40;;;9.50;99.90;;;;;;4914713;29;20210;-67
2022/03/16 09:18:52;;;;;;;11.23;8.55;;;9.60;99.90;;;;;;4914230;29;20217;-68
2022/03/16 09:21:19;;;;;;;8.07;7.25;;;9.70;99.90;;;;;;4913358;29;20234;-69
2022/03/16 09:23:45;;;;;;;12.68;7.20;;;9.80;99.90;;;;;;4914487;29;20210;-68
2022/03/16 09:26:12;;;;;;;15.65;7.45;;;9.90;99.90;;;;;;4914388;29;20237;-68
2022/03/16 09:28:39;;;;;;;10.15;7.10;;;10.10;99.90;;;;;;4913834;29;20316;-69
2022/03/16 09:31:09;;;;;;;11.75;6.88;;;10.20;99.90;;;;;;4913690;29;20667;-68
2022/03/16 09:33:36;;;;;;;7.15;5.60;;;10.20;99.90;;;;;;4914363;29;20210;-69
2022/03/16 09:36:08;;;;;;;8.38;5.32;;;10.30;99.90;;;;;;4913903;29;20206;-69
2022/03/16 09:38:34;;;;;;;10.18;5.82;;;10.40;99.90;;;;;;4913468;29;20217;-69
2022/03/16 09:41:02;;;;;;;6.45;5.82;;;10.60;99.90;;;;;;4908545;29;20230;-69
2022/03/16 09:43:32;;;;;;;8.13;5.57;;;10.60;99.90;;;;;;4913896;29;20234;-68
2022/03/16 09:46:07;;;;;;;7.75;5.55;;;10.70;99.90;;;;;;4913915;29;20585;-69
2022/03/16 09:48:34;;;;;;;6.35;5.80;;;10.80;99.90;;;;;;4914279;29;20250;-69
2022/03/16 09:51:01;;;;;;;6.97;5.50;;;10.80;99.90;;;;;;4913129;29;20242;-68
2022/03/16 09:53:29;;;;;;;10.40;6.03;;;10.70;99.90;;;;;;4914459;29;20210;-68
2022/03/16 09:55:56;;;;;;;10.07;6.40;;;10.70;99.90;;;;;;4914172;29;20206;-68
2022/03/16 09:58:23;;;;;;;7.50;6.55;;;10.80;99.90;;;;;;4913704;29;20741;-68
2022/03/16 10:00:52;;;;;;;8.07;6.32;;;10.90;99.90;;;;;;4894344;29;20247;-68
2022/03/16 10:03:22;;;;;;;10.23;6.63;;;11.00;99.90;;;;;;4895203;29;20585;-68
2022/03/16 10:05:50;;;;;;;9.67;6.30;;;11.00;99.90;;;;;;4894926;29;20491;-70
2022/03/16 10:08:26;;;;;;;6.07;5.47;;;11.10;99.90;;;;;;4904959;29;20502;-68
2022/03/16 10:13:48;;;;;;;7.83;6.47;;;11.10;99.90;;;;;;4895193;29;20459;-68
2022/03/16 10:16:15;;;;;;;5.57;5.07;;;11.20;99.90;;;;;;4895500;29;20980;-68
2022/03/16 10:18:46;;;;;;;9.95;6.20;;;11.20;99.90;;;;;;4897901;29;20584;-69
2022/03/16 10:21:13;;;;;;;6.43;5.40;;;11.30;99.90;;;;;;4912910;29;20231;-68
2022/03/16 10:23:41;;;;;;;11.80;7.15;;;11.40;99.90;;;;;;4914216;29;20521;-69
2022/03/16 10:26:15;;;;;;;7.63;6.70;;;11.30;99.90;;;;;;4914183;29;20238;-69
2022/03/16 10:28:42;;;;;;;7.82;5.57;;;11.40;99.90;;;;;;4910357;29;20466;-68
2022/03/16 10:31:12;;;;;;;12.38;7.60;;;11.30;99.90;;;;;;4914864;29;20257;-69
2022/03/16 10:33:46;;;;;;;12.63;7.23;;;11.30;99.90;;;;;;4917895;29;20258;-68
2022/03/16 10:36:14;;;;;;;11.27;6.90;;;11.30;99.90;;;;;;4917021;29;20467;-69
2022/03/16 10:38:44;;;;;;;9.13;7.37;;;11.40;99.90;;;;;;4917196;29;20493;-69
2022/03/16 10:46:34;;;;;;;7.57;6.37;;;11.50;99.90;;;;;;4916761;29;20573;-69
2022/03/16 10:46:48;;;;;;;10.67;6.47;;;11.70;99.90;;;;;;4916971;29;20500;-69
2022/03/16 10:49:19;;;;;;;11.33;7.83;;;11.80;99.90;;;;;;4917589;29;20524;-69
2022/03/16 10:51:46;;;;;;;6.50;5.67;;;11.90;99.90;;;;;;4917216;29;20482;-69
2022/03/16 10:54:15;;;;;;;8.70;6.13;;;12.00;99.90;;;;;;4917587;29;20466;-70
2022/03/16 10:56:45;;;;;;;11.50;6.57;;;12.20;99.90;;;;;;4917373;29;20462;-69
2022/03/16 10:59:12;;;;;;;10.07;6.87;;;12.20;99.90;;;;;;4916579;29;20497;-69
2022/03/16 11:01:41;;;;;;;11.33;6.00;;;12.20;99.90;;;;;;4915250;29;20585;-68
2022/03/16 11:04:08;;;;;;;10.30;6.70;;;12.20;99.90;;;;;;4925271;29;20470;-70
2022/03/16 11:06:36;;;;;;;11.43;6.80;;;12.30;99.90;;;;;;4913760;29;20696;-69
2022/03/16 11:09:03;;;;;;;7.67;5.83;;;12.30;99.90;;;;;;4924169;29;20466;-70
2022/03/16 11:14:17;;;;;;;12.20;6.10;;;12.60;99.90;;;;;;4924064;29;20510;-69
2022/03/16 11:16:47;;;;;;;7.97;6.03;;;12.50;99.90;;;;;;4920872;29;20848;-69
2022/03/16 11:19:18;;;;;;;11.47;6.70;;;12.60;99.90;;;;;;4923337;29;20974;-68
2022/03/16 11:21:49;;;;;;;9.43;5.30;;;12.70;99.90;;;;;;4922387;29;20601;-67
2022/03/16 11:24:21;;;;;;;8.97;5.53;;;12.80;99.90;;;;;;4918686;29;20926;-69
2022/03/16 11:27:09;;;;;;;5.63;5.00;;;12.80;99.90;;;;;;4928796;29;20874;-68
2022/03/16 11:29:47;;;;;;;8.88;6.53;;;12.90;99.90;;;;;;4905218;29;20470;-68
2022/03/16 11:32:16;;;;;;;8.10;5.00;;;12.80;99.90;;;;;;4924182;29;20234;-69
2022/03/16 11:34:48;;;;;;;5.90;4.00;;;12.80;99.90;;;;;;4917823;29;20497;-68
2022/03/16 11:37:15;;;;;;;5.60;4.57;;;12.80;99.90;;;;;;4920639;29;20517;-68
2022/03/16 11:39:44;;;;;;;5.70;5.00;;;12.80;99.90;;;;;;4925159;29;20476;-68
2022/03/16 11:42:13;;;;;;;7.47;5.00;;;12.90;99.90;;;;;;4920795;29;20493;-67
2022/03/16 11:44:42;;;;;;;6.83;4.83;;;13.00;99.90;;;;;;4925800;29;20470;-68
2022/03/16 11:47:40;;;;;;;6.40;4.10;;;13.10;99.90;;;;;;4923144;29;20481;-68
2022/03/16 11:50:13;;;;;;;7.90;6.17;;;13.10;99.90;;;;;;4907812;23;20603;-71
2022/03/16 11:53:04;;;;;;;6.57;5.97;;;13.20;99.90;;;;;;4954304;28;20953;-72
2022/03/16 11:55:43;;;;;;;7.07;4.67;;;13.20;99.90;;;;;;4949536;28;20484;-72
2022/03/16 11:58:17;;;;;;;5.83;4.50;;;13.10;99.90;;;;;;4939995;29;20792;-72
2022/03/16 12:00:48;;;;;;;5.57;5.07;;;13.10;99.90;;;;;;4933323;28;20834;-72
2022/03/16 12:03:21;;;;;;;7.47;5.67;;;13.20;99.90;;;;;;4933916;29;20477;-72
2022/03/16 12:05:58;;;;;;;6.13;4.67;;;13.20;99.90;;;;;;4934308;29;20534;-72
2022/03/16 12:08:30;;;;;;;10.00;5.23;;;13.10;99.90;;;;;;4927519;29;20513;-70
2022/03/16 12:13:44;;;;;;;7.07;5.53;;;13.20;99.90;;;;;;4939907;29;20483;-70
2022/03/16 12:16:14;;;;;;;5.57;4.90;;;13.20;99.90;;;;;;4941228;29;20470;-71
2022/03/16 12:18:41;;;;;;;8.03;5.77;;;13.20;99.90;;;;;;4941232;29;20465;-70
2022/03/16 12:21:10;;;;;;;8.20;5.07;;;13.20;99.90;;;;;;4938965;29;20971;-71
2022/03/16 12:23:59;;;;;;;10.20;5.97;;;13.20;99.90;;;;;;4936440;29;20461;-71
2022/03/16 12:26:28;;;;;;;10.03;4.87;;;13.10;99.90;;;;;;4936382;29;20493;-71
2022/03/16 12:29:16;;;;;;;6.40;4.43;;;13.10;99.90;;;;;;4934316;29;20480;-70
2022/03/16 12:31:46;;;;;;;4.27;3.93;;;13.00;99.90;;;;;;4931092;29;20568;-70
2022/03/16 12:34:15;;;;;;;4.73;4.03;;;13.00;99.90;;;;;;4934389;29;20465;-70
2022/03/16 12:36:42;;;;;;;6.43;4.07;;;13.00;99.90;;;;;;4934169;29;20584;-70
2022/03/16 12:39:13;;;;;;;5.23;4.30;;;13.00;99.90;;;;;;4934213;29;20469;-70
2022/03/16 12:44:25;;;;;;;3.60;3.30;;;13.20;99.90;;;;;;4934363;29;20919;-70
2022/03/16 12:47:03;;;;;;;6.17;4.90;;;13.20;99.90;;;;;;4934568;29;20588;-71
2022/03/16 12:49:32;;;;;;;5.73;4.23;;;13.20;99.90;;;;;;4933618;29;20844;-70
2022/03/16 12:52:01;;;;;;;6.03;4.20;;;13.20;99.90;;;;;;4934309;29;20577;-70
2022/03/16 12:54:30;;;;;;;7.27;4.90;;;13.20;99.90;;;;;;4933710;29;20985;-70
2022/03/16 12:57:01;;;;;;;3.40;3.10;;;13.20;99.90;;;;;;4934437;29;20461;-70
2022/03/16 12:59:30;;;;;;;3.93;3.63;;;13.00;99.90;;;;;;4933663;29;20814;-70
2022/03/16 13:02:01;;;;;;;4.80;4.30;;;13.00;99.90;;;;;;4933533;29;20600;-70
2022/03/16 13:04:28;;;;;;;8.67;4.70;;;12.90;99.90;;;;;;4933369;29;20469;-70
2022/03/16 13:06:57;;;;;;;4.60;4.20;;;12.90;99.90;;;;;;4933684;29;20496;-70
2022/03/16 13:09:28;;;;;;;5.70;4.03;;;12.90;99.90;;;;;;4934158;29;20618;-70
2022/03/16 13:12:06;;;;;;;9.70;4.63;;;12.80;99.90;;;;;;4941456;29;20481;-70
2022/03/16 13:14:34;;;;;;;7.67;5.67;;;12.80;99.90;;;;;;4933443;29;20473;-70
2022/03/16 13:17:03;;;;;;;6.37;5.17;;;12.90;99.90;;;;;;4934021;29;20476;-69
2022/03/16 13:19:31;;;;;;;6.20;5.40;;;12.80;99.90;;;;;;4933300;29;20505;-68
2022/03/16 13:22:04;;;;;;;7.37;5.07;;;12.70;99.90;;;;;;4933714;29;20485;-68
2022/03/16 13:24:32;;;;;;;7.73;5.60;;;12.60;99.90;;;;;;4933606;29;20857;-68
2022/03/16 13:27:00;;;;;;;4.90;4.20;;;12.50;99.90;;;;;;4933621;29;20489;-68
2022/03/16 13:29:28;;;;;;;6.80;4.40;;;12.50;99.90;;;;;;4933354;29;20469;-68
2022/03/16 13:31:57;;;;;;;7.83;5.57;;;12.50;99.90;;;;;;4933409;29;20491;-68
2022/03/16 13:34:27;;;;;;;9.50;5.03;;;12.50;99.90;;;;;;4933051;29;20967;-68
2022/03/16 13:36:54;;;;;;;6.72;4.65;;;12.40;99.90;;;;;;4933837;29;20552;-68
2022/03/16 13:39:24;;;;;;;9.07;4.80;;;12.40;99.90;;;;;;4933313;29;20217;-68
2022/03/16 13:42:12;;;;;;;7.33;3.80;;;12.30;99.90;;;;;;4932647;29;20491;-68
2022/03/16 13:44:41;;;;;;;3.92;3.60;;;12.30;99.90;;;;;;4933030;29;20476;-68
2022/03/16 13:47:20;;;;;;;6.53;4.03;;;12.20;99.90;;;;;;4933505;29;20279;-68
2022/03/16 13:49:50;;;;;;;9.85;4.90;;;12.20;99.90;;;;;;4932130;28;20214;-68
2022/03/16 13:52:20;;;;;;;7.07;5.15;;;12.20;99.90;;;;;;4933426;29;20213;-68
2022/03/16 13:54:47;;;;;;;6.27;5.50;;;12.20;99.90;;;;;;4933373;29;20380;-68
2022/03/16 13:57:17;;;;;;;9.90;6.32;;;12.20;99.90;;;;;;4933611;29;20480;-68
2022/03/16 13:59:56;;;;;;;4.80;4.40;;;12.20;99.90;;;;;;4932322;29;20225;-68
2022/03/16 14:02:25;;;;;;;6.72;5.20;;;12.20;99.90;;;;;;4933392;29;20477;-68
2022/03/16 14:05:01;;;;;;;7.70;5.05;;;12.30;99.90;;;;;;4932596;29;20608;-68
2022/03/16 14:07:30;;;;;;;5.30;4.85;;;12.30;99.90;;;;;;4936820;29;20229;-69
2022/03/16 14:09:59;;;;;;;7.45;4.88;;;12.30;99.90;;;;;;4936460;29;20212;-68
2022/03/16 14:12:27;;;;;;;5.10;4.60;;;12.40;99.90;;;;;;4937648;29;20210;-68
2022/03/16 14:15:06;;;;;;;9.50;5.90;;;12.30;99.90;;;;;;4936534;29;20496;-68
2022/03/16 14:17:46;;;;;;;5.93;5.27;;;12.40;99.90;;;;;;4937199;29;20965;-69
2022/03/16 14:20:16;;;;;;;5.73;5.00;;;12.50;99.90;;;;;;4936617;29;20489;-69
2022/03/16 14:22:44;;;;;;;6.47;5.00;;;12.60;99.90;;;;;;4936882;29;20685;-69
2022/03/16 14:25:19;;;;;;;8.00;5.40;;;12.60;99.90;;;;;;4937096;29;21042;-69
2022/03/16 14:27:49;;;;;;;11.30;5.90;;;12.60;99.90;;;;;;4936735;29;20513;-69
2022/03/16 14:30:18;;;;;;;9.40;6.67;;;12.70;99.90;;;;;;4935656;29;20596;-69
2022/03/16 14:32:47;;;;;;;7.60;6.47;;;12.70;99.90;;;;;;4936600;29;20493;-69
2022/03/16 14:35:16;;;;;;;8.57;6.00;;;12.80;99.90;;;;;;4936122;29;20474;-69
2022/03/16 14:37:43;;;;;;;10.30;7.03;;;12.80;99.90;;;;;;4936868;29;20544;-70
2022/03/16 14:40:18;;;;;;;8.13;6.33;;;12.80;99.90;;;;;;4936082;29;20859;-69
2022/03/16 14:42:45;;;;;;;12.30;7.67;;;12.80;99.90;;;;;;4937443;29;20465;-69
2022/03/16 14:45:12;;;;;;;11.37;7.27;;;12.80;99.90;;;;;;4936808;29;20465;-69
2022/03/16 14:47:39;;;;;;;10.70;6.70;;;12.90;99.90;;;;;;4936617;29;20490;-69
2022/03/16 14:50:06;;;;;;;11.23;7.07;;;12.90;99.90;;;;;;4935779;29;20500;-69
2022/03/16 14:52:35;;;;;;;10.93;7.70;;;12.90;99.90;;;;;;4935873;29;20473;-69
2022/03/16 14:55:02;;;;;;;11.17;7.70;;;12.90;99.90;;;;;;4936223;29;20470;-68
2022/03/16 14:57:29;;;;;;;13.33;8.60;;;12.80;99.90;;;;;;4936406;29;20477;-68
2022/03/16 14:59:56;;;;;;;11.77;7.93;;;12.90;99.90;;;;;;4935248;29;20469;-68
2022/03/16 15:02:23;;;;;;;14.37;9.07;;;12.80;99.90;;;;;;4937051;29;20508;-68
2022/03/16 15:04:50;;;;;;;16.13;9.90;;;12.70;99.90;;;;;;4936089;29;20469;-68
2022/03/16 15:07:17;;;;;;;12.30;8.97;;;12.70;99.90;;;;;;4936138;29;20486;-68
2022/03/16 15:09:46;;;;;;;11.00;8.20;;;12.70;99.90;;;;;;4935317;29;20537;-68
2022/03/16 15:12:13;;;;;;;11.87;8.20;;;12.70;99.90;;;;;;4936124;29;20465;-68
2022/03/16 15:14:39;;;;;;;11.80;8.80;;;12.70;99.90;;;;;;4935272;29;20492;-67
2022/03/16 15:17:06;;;;;;;14.50;8.80;;;12.70;99.90;;;;;;4935471;29;20465;-67
2022/03/16 15:19:33;;;;;;;12.27;9.63;;;12.60;99.90;;;;;;4934800;29;20624;-68
2022/03/16 15:22:01;;;;;;;11.50;9.50;;;12.60;99.90;;;;;;4936318;29;20488;-68
2022/03/16 15:24:27;;;;;;;10.90;9.30;;;12.60;99.90;;;;;;4936164;29;20903;-68
2022/03/16 15:26:56;;;;;;;16.05;9.70;;;12.50;99.90;;;;;;4935784;29;20489;-68
2022/03/16 15:29:23;;;;;;;11.70;8.93;;;12.40;99.90;;;;;;4935344;29;20675;-68
2022/03/16 15:31:51;;;;;;;13.07;9.30;;;12.50;99.90;;;;;;4935231;29;20241;-68
2022/03/16 15:34:18;;;;;;;15.30;9.80;;;12.40;99.90;;;;;;4935580;29;20472;-69
2022/03/16 15:36:44;;;;;;;13.40;9.67;;;12.40;99.90;;;;;;4935609;29;20813;-69
2022/03/16 15:39:12;;;;;;;12.80;11.07;;;12.50;99.90;;;;;;4935788;29;20478;-69
2022/03/16 15:44:25;;;;;;;13.80;9.40;;;12.40;99.90;;;;;;4935092;29;20890;-69
2022/03/16 15:46:51;;;;;;;20.00;11.43;;;12.40;99.90;;;;;;4935739;29;20982;-68
2022/03/16 15:49:20;;;;;;;13.27;10.70;;;12.40;99.90;;;;;;4935525;29;20466;-69
2022/03/16 15:51:49;;;;;;;13.77;9.93;;;12.40;99.90;;;;;;4934465;29;20908;-69
2022/03/16 15:54:16;;;;;;;12.03;7.70;;;12.40;99.90;;;;;;4935369;29;20549;-69
2022/03/16 15:56:44;;;;;;;11.47;9.87;;;12.40;99.90;;;;;;4935104;29;20473;-68
2022/03/16 15:59:11;;;;;;;13.40;10.40;;;12.40;99.90;;;;;;4935243;29;20557;-68
2022/03/16 16:01:39;;;;;;;13.70;10.33;;;12.50;99.90;;;;;;4936289;29;20512;-68
2022/03/16 16:04:06;;;;;;;17.55;10.55;;;12.50;99.90;;;;;;4937479;29;20816;-68
2022/03/16 16:06:33;;;;;;;14.10;9.67;;;12.40;99.90;;;;;;4935019;29;20210;-68
2022/03/16 16:09:00;;;;;;;17.40;12.07;;;12.40;99.90;;;;;;4935254;29;20497;-68
2022/03/16 16:11:27;;;;;;;12.75;10.13;;;12.30;99.90;;;;;;4934794;29;20493;-68
2022/03/16 16:13:54;;;;;;;14.20;9.73;;;12.20;99.90;;;;;;4935009;29;20657;-68
2022/03/16 16:16:21;;;;;;;14.23;10.88;;;12.10;99.90;;;;;;4936566;29;20473;-68
2022/03/16 16:18:49;;;;;;;12.52;10.88;;;12.10;99.90;;;;;;4937819;29;20273;-68
2022/03/16 16:21:16;;;;;;;15.88;9.90;;;12.00;99.90;;;;;;4936521;29;20237;-68
2022/03/16 16:23:43;;;;;;;17.33;11.23;;;12.00;99.90;;;;;;4938150;29;20260;-68
2022/03/16 16:26:10;;;;;;;18.70;11.90;;;11.90;99.90;;;;;;4935796;29;20234;-68
2022/03/16 16:28:37;;;;;;;17.58;10.95;;;11.80;99.90;;;;;;4933900;29;20659;-68
2022/03/16 16:31:06;;;;;;;16.20;11.77;;;11.80;99.90;;;;;;4934274;29;20282;-68
2022/03/16 16:33:34;;;;;;;18.15;12.18;;;11.70;99.90;;;;;;4934703;29;20271;-68
2022/03/16 16:36:09;;;;;;;18.08;11.73;;;11.70;99.90;;;;;;4933997;29;20277;-69
2022/03/16 16:38:35;;;;;;;17.30;12.38;;;11.60;99.90;;;;;;4934422;29;20200;-70
2022/03/16 16:41:02;;;;;;;14.68;10.70;;;11.60;99.90;;;;;;4933954;29;20233;-70
2022/03/16 16:43:30;;;;;;;16.00;13.50;;;11.50;99.90;;;;;;4934176;29;20206;-69
2022/03/16 16:45:57;;;;;;;14.93;11.23;;;11.40;99.90;;;;;;4934566;29;20220;-69
2022/03/16 16:48:25;;;;;;;17.30;11.95;;;11.30;99.90;;;;;;4934450;29;20366;-69
2022/03/16 16:50:53;;;;;;;15.48;11.77;;;11.30;99.90;;;;;;4933352;29;20580;-69
2022/03/16 16:53:24;;;;;;;18.52;11.38;;;11.20;99.90;;;;;;4934363;29;20213;-69
2022/03/16 16:55:52;;;;;;;18.73;13.43;;;11.20;99.90;;;;;;4934547;29;20190;-69
2022/03/16 16:58:19;;;;;;;18.23;13.50;;;11.10;99.90;;;;;;4933779;29;20668;-69
2022/03/16 17:00:46;;;;;;;18.48;12.32;;;11.10;99.90;;;;;;4933433;29;20694;-69
2022/03/16 17:03:15;;;;;;;17.77;11.80;;;11.00;99.90;;;;;;4934373;29;20209;-69
2022/03/16 17:05:44;;;;;;;20.70;13.13;;;10.90;99.90;;;;;;4933678;29;20209;-69
2022/03/16 17:08:13;;;;;;;16.90;13.50;;;10.90;99.90;;;;;;4934492;29;20248;-69
2022/03/16 17:10:43;;;;;;;17.85;12.35;;;10.80;99.90;;;;;;4933554;29;20237;-69
2022/03/16 17:13:11;;;;;;;15.02;10.95;;;10.80;99.90;;;;;;4934110;29;20348;-69
2022/03/16 17:15:42;;;;;;;13.65;11.00;;;10.70;99.90;;;;;;4933804;29;20233;-69
2022/03/16 17:18:11;;;;;;;19.20;10.95;;;10.60;99.90;;;;;;4933680;29;20233;-69
2022/03/16 17:20:38;;;;;;;17.40;10.93;;;10.60;99.90;;;;;;4932755;29;20710;-69
2022/03/16 17:23:06;;;;;;;15.40;10.40;;;10.50;99.90;;;;;;4934035;29;20220;-69
2022/03/16 17:25:35;;;;;;;13.77;9.68;;;10.50;99.90;;;;;;4933894;29;20209;-69
2022/03/16 17:28:04;;;;;;;15.75;10.70;;;10.40;99.90;;;;;;4933748;29;20264;-69
2022/03/16 17:30:32;;;;;;;15.65;9.98;;;10.40;99.90;;;;;;4934564;29;20229;-71
2022/03/16 17:32:59;;;;;;;17.00;10.27;;;10.30;99.90;;;;;;4936383;29;20213;-70
2022/03/16 17:35:30;;;;;;;13.90;10.77;;;10.20;99.90;;;;;;4935760;29;20580;-70
2022/03/16 17:37:57;;;;;;;17.00;11.27;;;10.20;99.90;;;;;;4936163;29;20313;-70
2022/03/16 17:40:25;;;;;;;15.95;10.82;;;10.10;99.90;;;;;;4938985;29;20249;-70
2022/03/16 17:45:37;;;;;;;14.52;9.73;;;10.10;99.90;;;;;;4929740;29;20257;-70
2022/03/16 17:48:06;;;;;;;14.48;10.15;;;10.00;99.90;;;;;;4940439;29;20276;-70
2022/03/16 17:50:35;;;;;;;13.63;9.80;;;10.00;99.90;;;;;;4939884;29;20267;-69
2022/03/16 17:53:02;;;;;;;10.63;8.40;;;10.00;99.90;;;;;;4940711;29;20210;-70
2022/03/16 17:58:13;;;;;;;13.10;9.85;;;9.90;99.90;;;;;;4935900;29;20213;-70
2022/03/16 18:00:43;;;;;;;17.45;9.45;;;9.80;99.90;;;;;;4939531;29;20237;-70
2022/03/16 18:03:11;;;;;;;14.70;10.05;;;9.80;99.90;;;;;;4939823;29;20236;-70
2022/03/16 18:05:39;;;;;;;14.52;9.45;;;9.70;99.90;;;;;;4939366;29;20252;-69
2022/03/16 18:08:09;;;;;;;12.15;9.32;;;9.70;99.90;;;;;;4939975;29;20632;-69